createdAt,value
2019-01-21T00:02:24.878Z,951.74
2019-01-21T00:04:51.189Z,951.72
2019-01-21T00:07:17.495Z,951.66
2019-01-21T00:09:43.805Z,951.65
2019-01-21T00:12:10.114Z,951.68
2019-01-21T00:14:36.423Z,951.73
2019-01-21T00:17:02.730Z,951.79
2019-01-21T00:19:29.045Z,951.82
2019-01-21T00:21:55.354Z,951.84
2019-01-21T00:24:21.674Z,951.93
2019-01-21T00:26:47.975Z,951.91
2019-01-21T00:29:14.284Z,951.97
2019-01-21T00:31:40.595Z,951.99
2019-01-21T00:34:06.905Z,951.98
2019-01-21T00:36:33.214Z,952.01
2019-01-21T00:38:59.535Z,952.01
2019-01-21T00:41:25.843Z,952.06
2019-01-21T00:43:52.158Z,952.04
2019-01-21T00:46:18.470Z,952.06
2019-01-21T00:48:44.782Z,952.04
2019-01-21T00:51:11.100Z,952.11
2019-01-21T00:53:37.412Z,952.18
2019-01-21T00:56:03.715Z,952.17
2019-01-21T00:58:30.030Z,952.13
2019-01-21T01:00:56.348Z,952.23
2019-01-21T01:03:22.664Z,952.20
2019-01-21T01:05:48.975Z,952.27
2019-01-21T01:08:15.281Z,952.26
2019-01-21T01:10:41.588Z,952.23
2019-01-21T01:13:07.901Z,952.19
2019-01-21T01:15:34.216Z,952.25
2019-01-21T01:18:00.523Z,952.20
2019-01-21T01:20:26.855Z,952.17
2019-01-21T01:22:53.160Z,952.24
2019-01-21T01:25:19.477Z,952.20
2019-01-21T01:27:45.777Z,952.16
2019-01-21T01:30:12.091Z,952.14
2019-01-21T01:32:38.405Z,952.14
2019-01-21T01:35:04.731Z,952.14
2019-01-21T01:37:31.032Z,952.12
2019-01-21T01:39:57.339Z,952.07
2019-01-21T01:42:23.649Z,952.12
2019-01-21T01:44:49.963Z,952.14
2019-01-21T01:47:16.301Z,952.07
2019-01-21T01:49:42.573Z,952.08
2019-01-21T01:52:08.878Z,952.09
2019-01-21T01:54:35.198Z,952.14
2019-01-21T01:57:01.506Z,952.11
2019-01-21T01:59:27.864Z,952.04
2019-01-21T02:01:54.167Z,952.03
2019-01-21T02:04:20.476Z,952.11
2019-01-21T02:06:46.789Z,952.06
2019-01-21T02:09:13.100Z,952.04
2019-01-21T02:11:39.413Z,952.00
2019-01-21T02:14:05.721Z,952.00
2019-01-21T02:16:32.031Z,952.00
2019-01-21T02:18:58.328Z,951.98
2019-01-21T02:21:24.640Z,951.95
2019-01-21T02:23:50.947Z,951.96
2019-01-21T02:26:17.252Z,951.94
2019-01-21T02:28:43.553Z,952.01
2019-01-21T02:31:09.862Z,952.07
2019-01-21T02:33:36.169Z,952.04
2019-01-21T02:36:02.479Z,952.09
2019-01-21T02:38:28.784Z,952.11
2019-01-21T02:40:55.091Z,952.12
2019-01-21T02:43:21.402Z,952.13
2019-01-21T02:45:47.711Z,952.14
2019-01-21T02:48:14.022Z,952.22
2019-01-21T02:50:40.338Z,952.17
2019-01-21T02:53:06.644Z,952.18
2019-01-21T02:55:32.990Z,952.22
2019-01-21T02:57:59.296Z,952.20
2019-01-21T03:00:25.603Z,952.15
2019-01-21T03:02:51.918Z,952.18
2019-01-21T03:05:18.224Z,952.02
2019-01-21T03:07:44.537Z,952.13
2019-01-21T03:10:10.859Z,952.07
2019-01-21T03:12:37.148Z,952.08
2019-01-21T03:15:03.466Z,952.05
2019-01-21T03:17:29.785Z,952.07
2019-01-21T03:19:56.094Z,952.03
2019-01-21T03:22:22.406Z,952.06
2019-01-21T03:24:48.716Z,952.07
2019-01-21T03:27:15.033Z,952.05
2019-01-21T03:29:41.353Z,952.01
2019-01-21T03:32:07.695Z,952.05
2019-01-21T03:34:33.992Z,952.13
2019-01-21T03:37:00.297Z,952.09
2019-01-21T03:39:26.594Z,952.08
2019-01-21T03:41:52.909Z,952.05
2019-01-21T03:44:19.238Z,952.08
2019-01-21T03:46:45.521Z,952.05
2019-01-21T03:49:11.858Z,952.01
2019-01-21T03:51:38.135Z,952.04
2019-01-21T03:54:04.451Z,952.06
2019-01-21T03:56:30.747Z,952.04
2019-01-21T03:58:57.051Z,952.06
2019-01-21T04:01:23.362Z,952.02
2019-01-21T04:03:49.670Z,951.95
2019-01-21T04:06:15.996Z,951.96
2019-01-21T04:08:42.303Z,952.01
2019-01-21T04:11:08.616Z,952.07
2019-01-21T04:13:34.931Z,952.03
2019-01-21T04:16:01.243Z,952.07
2019-01-21T04:18:27.554Z,952.02
2019-01-21T04:20:53.863Z,952.07
2019-01-21T04:23:20.174Z,952.02
2019-01-21T04:25:46.483Z,952.12
2019-01-21T04:28:12.790Z,952.13
2019-01-21T04:30:39.110Z,952.18
2019-01-21T04:33:05.411Z,952.23
2019-01-21T04:35:31.728Z,952.20
2019-01-21T04:37:58.039Z,952.29
2019-01-21T04:40:24.350Z,952.34
2019-01-21T04:42:50.665Z,952.27
2019-01-21T04:45:16.974Z,952.30
2019-01-21T04:47:43.285Z,952.30
2019-01-21T04:50:09.639Z,952.26
2019-01-21T04:52:35.937Z,952.29
2019-01-21T04:55:02.250Z,952.39
2019-01-21T04:57:28.557Z,952.46
2019-01-21T04:59:54.862Z,952.46
2019-01-21T05:02:21.167Z,952.48
2019-01-21T05:04:47.513Z,952.50
2019-01-21T05:07:13.786Z,952.52
2019-01-21T05:09:40.094Z,952.55
2019-01-21T05:12:06.403Z,952.58
2019-01-21T05:14:32.709Z,952.62
2019-01-21T05:16:59.025Z,952.63
2019-01-21T05:19:25.332Z,952.63
2019-01-21T05:21:51.635Z,952.60
2019-01-21T05:24:17.949Z,952.58
2019-01-21T05:26:44.270Z,952.66
2019-01-21T05:29:10.578Z,952.69
2019-01-21T05:31:36.904Z,952.68
2019-01-21T05:34:03.206Z,952.67
2019-01-21T05:36:29.598Z,952.63
2019-01-21T05:38:55.927Z,952.67
2019-01-21T05:41:22.226Z,952.68
2019-01-21T05:43:48.537Z,952.68
2019-01-21T05:46:14.840Z,952.74
2019-01-21T05:48:48.727Z,952.74
2019-01-21T05:51:07.471Z,952.85
2019-01-21T05:53:33.771Z,952.81
2019-01-21T05:56:00.073Z,952.88
2019-01-21T05:58:26.386Z,952.91
2019-01-21T06:00:52.715Z,952.89
2019-01-21T06:03:19.025Z,952.94
2019-01-21T06:05:45.343Z,952.94
2019-01-21T06:08:11.648Z,952.89
2019-01-21T06:10:37.961Z,952.92
2019-01-21T06:13:04.267Z,952.95
2019-01-21T06:15:30.576Z,952.98
2019-01-21T06:17:56.891Z,953.02
2019-01-21T06:20:23.199Z,953.02
2019-01-21T06:22:49.507Z,953.06
2019-01-21T06:25:15.816Z,953.07
2019-01-21T06:27:42.130Z,953.05
2019-01-21T06:30:08.438Z,953.07
2019-01-21T06:32:34.747Z,953.12
2019-01-21T06:35:01.085Z,953.11
2019-01-21T06:37:27.400Z,953.12
2019-01-21T06:39:53.710Z,953.12
2019-01-21T06:42:20.023Z,953.12
2019-01-21T06:44:46.332Z,953.21
2019-01-21T06:47:12.647Z,953.25
2019-01-21T06:49:38.954Z,953.34
2019-01-21T06:52:05.265Z,953.32
2019-01-21T06:54:31.568Z,953.32
2019-01-21T06:56:57.884Z,953.33
2019-01-21T06:59:24.207Z,953.35
2019-01-21T07:01:50.544Z,953.39
2019-01-21T07:04:16.852Z,953.43
2019-01-21T07:06:43.159Z,953.44
2019-01-21T07:09:09.477Z,953.48
2019-01-21T07:11:35.794Z,953.51
2019-01-21T07:14:02.107Z,953.58
2019-01-21T07:16:28.436Z,953.61
2019-01-21T07:18:54.746Z,953.67
2019-01-21T07:21:21.047Z,953.65
2019-01-21T07:23:47.359Z,953.78
2019-01-21T07:26:13.660Z,953.79
2019-01-21T07:28:39.978Z,953.79
2019-01-21T07:31:06.289Z,953.75
2019-01-21T07:33:32.602Z,953.84
2019-01-21T07:35:58.911Z,953.88
2019-01-21T07:38:25.223Z,953.83
2019-01-21T07:40:51.536Z,953.85
2019-01-21T07:43:17.843Z,953.88
2019-01-21T07:45:44.151Z,953.83
2019-01-21T07:48:10.465Z,953.85
2019-01-21T07:50:36.776Z,953.86
2019-01-21T07:53:03.084Z,953.87
2019-01-21T07:55:29.390Z,953.93
2019-01-21T07:57:55.707Z,953.92
2019-01-21T08:00:22.021Z,953.90
2019-01-21T08:02:48.334Z,953.91
2019-01-21T08:05:14.671Z,953.96
2019-01-21T08:07:40.976Z,954.01
2019-01-21T08:10:07.282Z,953.95
2019-01-21T08:12:33.622Z,954.03
2019-01-21T08:14:59.916Z,954.06
2019-01-21T08:17:26.247Z,954.13
2019-01-21T08:19:52.557Z,954.09
2019-01-21T08:22:18.869Z,954.16
2019-01-21T08:24:45.183Z,954.24
2019-01-21T08:27:11.538Z,954.25
2019-01-21T08:29:37.848Z,954.24
2019-01-21T08:32:04.164Z,954.35
2019-01-21T08:34:30.492Z,954.20
2019-01-21T08:36:56.768Z,954.34
2019-01-21T08:39:23.077Z,954.40
2019-01-21T08:41:49.390Z,954.37
2019-01-21T08:44:15.730Z,954.45
2019-01-21T08:46:42.016Z,954.40
2019-01-21T08:49:10.282Z,954.42
2019-01-21T08:51:35.671Z,954.41
2019-01-21T08:54:00.951Z,954.52
2019-01-21T08:56:27.261Z,954.47
2019-01-21T08:58:53.576Z,954.53
2019-01-21T09:01:19.885Z,954.43
2019-01-21T09:03:46.213Z,954.48
2019-01-21T09:06:12.516Z,954.53
2019-01-21T09:08:38.830Z,954.56
2019-01-21T09:11:05.158Z,954.48
2019-01-21T09:13:31.467Z,954.55
2019-01-21T09:15:57.775Z,954.51
2019-01-21T09:18:24.082Z,954.45
2019-01-21T09:20:50.389Z,954.51
2019-01-21T09:23:16.699Z,954.49
2019-01-21T09:25:43.014Z,954.43
2019-01-21T09:28:09.323Z,954.39
2019-01-21T09:30:35.631Z,954.35
2019-01-21T09:33:01.945Z,954.32
2019-01-21T09:35:28.292Z,954.37
2019-01-21T09:37:54.575Z,954.37
2019-01-21T09:40:20.880Z,954.39
2019-01-21T09:42:47.188Z,954.30
2019-01-21T09:45:13.505Z,954.25
2019-01-21T09:47:39.809Z,954.21
2019-01-21T09:50:06.118Z,954.22
2019-01-21T09:52:32.425Z,954.25
2019-01-21T09:54:58.735Z,954.27
2019-01-21T09:57:25.046Z,954.17
2019-01-21T09:59:51.362Z,954.20
2019-01-21T10:02:17.673Z,954.19
2019-01-21T10:04:43.981Z,954.15
2019-01-21T10:07:10.292Z,954.08
2019-01-21T10:09:36.609Z,954.02
2019-01-21T10:12:02.953Z,953.95
2019-01-21T10:14:29.268Z,953.91
2019-01-21T10:16:55.577Z,953.87
2019-01-21T10:19:21.891Z,953.85
2019-01-21T10:21:48.203Z,953.79
2019-01-21T10:24:14.513Z,953.68
2019-01-21T10:26:40.817Z,953.70
2019-01-21T10:29:07.140Z,953.69
2019-01-21T10:31:33.448Z,953.71
2019-01-21T10:33:59.774Z,953.74
2019-01-21T10:36:26.079Z,953.71
2019-01-21T10:38:52.390Z,953.64
2019-01-21T10:41:18.705Z,953.71
2019-01-21T10:43:45.021Z,953.72
2019-01-21T10:46:11.332Z,953.70
2019-01-21T10:48:37.638Z,953.68
2019-01-21T10:51:03.954Z,953.65
2019-01-21T10:53:30.277Z,953.65
2019-01-21T10:55:56.588Z,953.62
2019-01-21T10:58:22.901Z,953.58
2019-01-21T11:00:49.212Z,953.61
2019-01-21T11:03:15.516Z,953.61
2019-01-21T11:05:41.839Z,953.57
2019-01-21T11:08:08.147Z,953.57
2019-01-21T11:10:34.468Z,953.66
2019-01-21T11:13:00.778Z,953.64
2019-01-21T11:15:27.085Z,953.63
2019-01-21T11:17:53.389Z,953.54
2019-01-21T11:20:19.702Z,953.60
2019-01-21T11:22:46.012Z,953.61
2019-01-21T11:25:12.320Z,953.58
2019-01-21T11:27:38.629Z,953.56
2019-01-21T11:30:04.955Z,953.53
2019-01-21T11:32:31.280Z,953.48
2019-01-21T11:34:57.589Z,953.42
2019-01-21T11:37:23.896Z,953.47
2019-01-21T11:39:50.213Z,953.46
2019-01-21T11:42:16.541Z,953.48
2019-01-21T11:44:42.853Z,953.40
2019-01-21T11:47:09.162Z,953.43
2019-01-21T11:49:35.470Z,953.39
2019-01-21T11:52:01.786Z,953.40
2019-01-21T11:54:28.098Z,953.38
2019-01-21T11:56:54.478Z,953.37
2019-01-21T11:59:20.794Z,953.31
2019-01-21T12:01:47.103Z,953.34
2019-01-21T12:04:13.409Z,953.35
2019-01-21T12:06:39.716Z,953.38
2019-01-21T12:09:06.087Z,953.37
2019-01-21T12:11:32.396Z,953.43
2019-01-21T12:13:58.714Z,953.38
2019-01-21T12:16:25.029Z,953.36
2019-01-21T12:18:51.335Z,953.34
2019-01-21T12:21:17.650Z,953.31
2019-01-21T12:23:43.960Z,953.31
2019-01-21T12:26:10.269Z,953.32
2019-01-21T12:28:36.580Z,953.28
2019-01-21T12:31:02.893Z,953.25
2019-01-21T12:33:29.201Z,953.22
2019-01-21T12:35:55.509Z,953.21
2019-01-21T12:38:21.818Z,953.19
2019-01-21T12:40:48.152Z,953.13
2019-01-21T12:43:14.453Z,953.15
2019-01-21T12:45:40.777Z,953.17
2019-01-21T12:48:07.138Z,953.13
2019-01-21T12:50:33.445Z,953.26
2019-01-21T12:52:59.760Z,953.28
2019-01-21T12:55:26.069Z,953.24
2019-01-21T12:57:52.379Z,953.23
2019-01-21T13:00:18.687Z,953.15
2019-01-21T13:02:44.998Z,953.22
2019-01-21T13:05:12.649Z,953.21
2019-01-21T13:07:37.634Z,953.20
2019-01-21T13:10:03.954Z,953.29
2019-01-21T13:12:30.255Z,953.24
2019-01-21T13:14:56.566Z,953.33
2019-01-21T13:17:22.879Z,953.30
2019-01-21T13:19:49.186Z,953.31
2019-01-21T13:22:15.505Z,953.33
2019-01-21T13:24:41.810Z,953.28
2019-01-21T13:27:08.120Z,953.31
2019-01-21T13:29:34.432Z,953.31
2019-01-21T13:32:00.746Z,953.33
2019-01-21T13:34:27.056Z,953.29
2019-01-21T13:36:53.359Z,953.33
2019-01-21T13:39:19.663Z,953.26
2019-01-21T13:41:46.001Z,953.23
2019-01-21T13:44:12.310Z,953.28
2019-01-21T13:46:38.620Z,953.24
2019-01-21T13:49:04.934Z,953.24
2019-01-21T13:51:31.237Z,953.23
2019-01-21T13:53:57.560Z,953.29
2019-01-21T13:56:23.879Z,953.27
2019-01-21T13:58:50.192Z,953.24
2019-01-21T14:01:16.501Z,953.16
2019-01-21T14:03:42.806Z,953.22
2019-01-21T14:06:09.118Z,953.19
2019-01-21T14:08:35.432Z,953.26
2019-01-21T14:11:01.736Z,953.23
2019-01-21T14:13:28.043Z,953.22
2019-01-21T14:15:54.352Z,953.27
2019-01-21T14:18:20.661Z,953.23
2019-01-21T14:20:46.974Z,953.28
2019-01-21T14:23:13.278Z,953.25
2019-01-21T14:25:39.601Z,953.30
2019-01-21T14:28:05.913Z,953.33
2019-01-21T14:30:32.226Z,953.32
2019-01-21T14:32:58.538Z,953.30
2019-01-21T14:35:24.846Z,953.25
2019-01-21T14:37:51.155Z,953.26
2019-01-21T14:40:17.495Z,953.27
2019-01-21T14:42:44.922Z,953.27
2019-01-21T14:45:11.244Z,953.32
2019-01-21T14:47:37.584Z,953.35
2019-01-21T14:50:03.864Z,953.40
2019-01-21T14:52:30.184Z,953.40
2019-01-21T14:54:56.499Z,953.42
2019-01-21T14:57:24.048Z,953.45
2019-01-21T14:59:49.120Z,953.42
2019-01-21T15:02:15.464Z,953.41
2019-01-21T15:04:41.745Z,953.44
2019-01-21T15:07:08.105Z,953.42
2019-01-21T15:09:34.386Z,953.36
2019-01-21T15:12:00.692Z,953.40
2019-01-21T15:14:27.070Z,953.38
2019-01-21T15:16:53.321Z,953.36
2019-01-21T15:19:19.609Z,953.37
2019-01-21T15:21:45.948Z,953.40
2019-01-21T15:24:12.312Z,953.40
2019-01-21T15:26:38.579Z,953.41
2019-01-21T15:29:04.869Z,953.45
2019-01-21T15:31:31.183Z,953.46
2019-01-21T15:33:57.488Z,953.51
2019-01-21T15:36:23.877Z,953.46
2019-01-21T15:38:50.187Z,953.48
2019-01-21T15:41:16.470Z,953.51
2019-01-21T15:43:42.870Z,953.41
2019-01-21T15:46:09.172Z,953.50
2019-01-21T15:48:35.429Z,953.55
2019-01-21T15:51:05.168Z,953.49
2019-01-21T15:53:28.072Z,953.50
2019-01-21T15:55:54.385Z,953.51
2019-01-21T15:58:20.689Z,953.60
2019-01-21T16:00:47.015Z,953.54
2019-01-21T16:03:13.325Z,953.61
2019-01-21T16:05:39.645Z,953.62
2019-01-21T16:08:06.387Z,953.64
2019-01-21T16:10:32.350Z,953.71
2019-01-21T16:12:58.690Z,953.70
2019-01-21T16:15:25.005Z,953.69
2019-01-21T16:17:51.313Z,953.68
2019-01-21T16:20:17.632Z,953.72
2019-01-21T16:22:43.984Z,953.74
2019-01-21T16:25:10.300Z,953.77
2019-01-21T16:27:36.660Z,953.77
2019-01-21T16:30:02.927Z,953.75
2019-01-21T16:32:29.352Z,953.79
2019-01-21T16:34:55.657Z,953.77
2019-01-21T16:37:21.968Z,953.78
2019-01-21T16:39:48.307Z,953.83
2019-01-21T16:42:14.598Z,953.84
2019-01-21T16:44:40.927Z,953.83
2019-01-21T16:47:07.250Z,953.83
2019-01-21T16:49:33.570Z,953.83
2019-01-21T16:51:59.877Z,953.83
2019-01-21T16:54:26.200Z,953.87
2019-01-21T16:56:52.550Z,953.91
2019-01-21T16:59:18.904Z,953.86
2019-01-21T17:01:45.214Z,953.93
2019-01-21T17:04:11.615Z,953.94
2019-01-21T17:06:39.495Z,954.02
2019-01-21T17:09:04.315Z,953.98
2019-01-21T17:11:31.925Z,954.05
2019-01-21T17:13:58.259Z,953.96
2019-01-21T17:16:24.618Z,953.82
2019-01-21T17:18:50.925Z,953.97
2019-01-21T17:21:17.228Z,953.93
2019-01-21T17:23:43.567Z,953.92
2019-01-21T17:26:09.881Z,953.93
2019-01-21T17:28:36.303Z,953.93
2019-01-21T17:31:02.621Z,953.95
2019-01-21T17:33:28.968Z,953.95
2019-01-21T17:35:55.273Z,953.92
2019-01-21T17:38:22.612Z,954.01
2019-01-21T17:40:51.959Z,953.98
2019-01-21T17:43:16.624Z,954.03
2019-01-21T17:45:42.962Z,953.92
2019-01-21T17:48:09.275Z,954.04
2019-01-21T17:50:48.340Z,954.05
2019-01-21T17:53:13.059Z,953.99
2019-01-21T17:55:39.386Z,953.96
2019-01-21T17:58:05.697Z,953.97
2019-01-21T18:00:32.018Z,954.03
2019-01-21T18:02:58.339Z,954.07
2019-01-21T18:05:24.684Z,954.06
2019-01-21T18:07:51.113Z,954.01
2019-01-21T18:10:19.148Z,954.05
2019-01-21T18:12:43.750Z,954.03
2019-01-21T18:15:12.034Z,954.04
2019-01-21T18:17:40.816Z,954.06
2019-01-21T18:20:07.233Z,954.08
2019-01-21T18:22:33.548Z,954.01
2019-01-21T18:24:59.858Z,954.08
2019-01-21T18:27:26.224Z,954.03
2019-01-21T18:29:52.528Z,954.02
2019-01-21T18:32:19.500Z,954.00
2019-01-21T18:34:45.789Z,954.06
2019-01-21T18:37:12.096Z,954.09
2019-01-21T18:39:38.450Z,954.09
2019-01-21T18:42:04.775Z,954.05
2019-01-21T18:44:31.236Z,954.12
2019-01-21T18:46:59.099Z,954.06
2019-01-21T18:49:25.432Z,954.08
2019-01-21T18:51:51.727Z,954.07
2019-01-21T18:54:31.982Z,954.17
2019-01-21T18:56:59.778Z,954.16
2019-01-21T18:59:26.098Z,954.13
2019-01-21T19:01:52.407Z,954.05
2019-01-21T19:04:18.716Z,954.10
2019-01-21T19:06:45.024Z,954.09
2019-01-21T19:09:11.340Z,954.08
2019-01-21T19:11:37.648Z,954.08
2019-01-21T19:14:03.961Z,954.10
2019-01-21T19:16:30.273Z,954.08
2019-01-21T19:18:56.605Z,954.07
2019-01-21T19:21:22.911Z,954.09
2019-01-21T19:23:49.226Z,954.05
2019-01-21T19:26:15.537Z,954.04
2019-01-21T19:28:41.848Z,954.10
2019-01-21T19:31:08.157Z,954.10
2019-01-21T19:33:34.510Z,954.09
2019-01-21T19:36:00.787Z,954.08
2019-01-21T19:38:27.101Z,954.10
2019-01-21T19:40:53.433Z,954.09
2019-01-21T19:43:19.739Z,954.03
2019-01-21T19:45:46.056Z,954.06
2019-01-21T19:48:12.675Z,954.05
2019-01-21T19:50:39.001Z,954.06
2019-01-21T19:53:05.317Z,954.12
2019-01-21T19:55:31.628Z,954.07
2019-01-21T19:57:57.932Z,954.06
2019-01-21T20:00:24.249Z,954.04
2019-01-21T20:02:50.561Z,954.04
2019-01-21T20:05:16.874Z,954.11
2019-01-21T20:07:43.188Z,954.08
2019-01-21T20:10:09.517Z,954.00
2019-01-21T20:12:35.851Z,954.06
2019-01-21T20:15:02.165Z,954.08
2019-01-21T20:17:28.473Z,954.10
2019-01-21T20:19:54.784Z,954.03
2019-01-21T20:22:21.120Z,954.13
2019-01-21T20:24:47.441Z,954.06
2019-01-21T20:27:13.759Z,954.12
2019-01-21T20:29:40.209Z,954.10
2019-01-21T20:32:08.308Z,954.10
2019-01-21T20:34:33.281Z,954.06
2019-01-21T20:36:59.683Z,953.98
2019-01-21T20:39:25.989Z,954.04
2019-01-21T20:41:52.417Z,954.05
2019-01-21T20:44:18.823Z,953.98
2019-01-21T20:46:45.132Z,953.96
2019-01-21T20:49:11.577Z,953.99
2019-01-21T20:51:37.960Z,954.03
2019-01-21T20:54:04.305Z,954.05
2019-01-21T20:56:30.583Z,953.96
2019-01-21T20:58:56.896Z,954.00
2019-01-21T21:01:23.199Z,954.03
2019-01-21T21:03:49.503Z,953.93
2019-01-21T21:06:16.077Z,953.92
2019-01-21T21:08:42.382Z,953.91
2019-01-21T21:11:08.686Z,953.95
2019-01-21T21:13:35.039Z,953.86
2019-01-21T21:16:01.411Z,953.90
2019-01-21T21:18:27.822Z,953.91
2019-01-21T21:20:54.080Z,953.88
2019-01-21T21:23:20.392Z,953.87
2019-01-21T21:25:46.969Z,953.92
2019-01-21T21:28:13.293Z,953.89
2019-01-21T21:30:39.608Z,953.90
2019-01-21T21:33:05.913Z,953.85
2019-01-21T21:35:32.233Z,953.90
2019-01-21T21:37:58.536Z,953.89
2019-01-21T21:40:24.854Z,953.87
2019-01-21T21:42:51.160Z,953.91
2019-01-21T21:45:17.501Z,953.84
2019-01-21T21:47:43.807Z,953.87
2019-01-21T21:50:10.115Z,953.85
2019-01-21T21:52:36.445Z,953.90
2019-01-21T21:55:02.764Z,953.88
2019-01-21T21:57:29.089Z,953.87
2019-01-21T21:59:55.400Z,953.84
2019-01-21T22:02:21.819Z,953.79
2019-01-21T22:04:48.127Z,953.79
2019-01-21T22:07:14.470Z,953.81
2019-01-21T22:09:40.809Z,953.76
2019-01-21T22:12:07.112Z,953.80
2019-01-21T22:14:33.456Z,953.72
2019-01-21T22:16:59.757Z,953.74
2019-01-21T22:19:26.073Z,953.73
2019-01-21T22:21:52.370Z,953.73
2019-01-21T22:24:18.672Z,953.75
2019-01-21T22:26:44.981Z,953.69
2019-01-21T22:29:11.288Z,953.67
2019-01-21T22:31:37.603Z,953.65
2019-01-21T22:34:03.956Z,953.64
2019-01-21T22:36:30.227Z,953.63
2019-01-21T22:38:56.528Z,953.69
2019-01-21T22:41:22.836Z,953.66
2019-01-21T22:43:49.140Z,953.71
2019-01-21T22:46:15.446Z,953.68
2019-01-21T22:48:41.753Z,953.62
2019-01-21T22:51:08.059Z,953.54
2019-01-21T22:53:34.364Z,953.58
2019-01-21T22:56:00.685Z,953.54
2019-01-21T22:58:26.991Z,953.58
2019-01-21T23:00:53.301Z,953.63
2019-01-21T23:03:19.611Z,953.56
2019-01-21T23:05:45.915Z,953.56
2019-01-21T23:08:12.228Z,953.57
2019-01-21T23:10:38.527Z,953.56
2019-01-21T23:13:04.845Z,953.59
2019-01-21T23:15:31.146Z,953.54
2019-01-21T23:17:57.458Z,953.55
2019-01-21T23:20:23.764Z,953.54
2019-01-21T23:22:50.068Z,953.54
2019-01-21T23:25:16.376Z,953.69
2019-01-21T23:27:42.686Z,953.54
2019-01-21T23:30:08.987Z,953.50
2019-01-21T23:32:35.295Z,953.54
2019-01-21T23:35:01.601Z,953.56
2019-01-21T23:37:27.914Z,953.56
2019-01-21T23:39:54.221Z,953.55
2019-01-21T23:42:20.534Z,953.51
2019-01-21T23:44:46.836Z,953.55
2019-01-21T23:47:13.143Z,953.51
2019-01-21T23:49:39.453Z,953.48
2019-01-21T23:52:05.770Z,953.56
2019-01-21T23:54:32.084Z,953.41
2019-01-21T23:56:58.390Z,953.49
2019-01-21T23:59:24.691Z,953.47
